ADDS METAR Data INFO
IDs: Format: Raw Decoded Include TAF

Data at: 2205 UTC 24 Feb 2018

KFKA 242155Z AUTO 09013KT 1 3/4SM BR OVC009 M01/M02 A2965 RMK AO2 T10121025
KFKA 242135Z AUTO 09012G17KT 2 1/2SM BR OVC013 M01/M03 A2969 RMK AO2 T10121026
KFKA 242115Z AUTO 10013G16KT 1 3/4SM BR BKN013 OVC022 M01/M03 A2972 RMK AO2 T10101027
KFKA 242055Z AUTO 11011KT 3SM BR SCT013 SCT018 OVC024 M01/M03 A2976 RMK AO2 T10101030
KFKA 242035Z AUTO 11013KT 3SM -SN SCT015 SCT021 OVC041 M01/M03 A2978 RMK AO2 T10071031
KFKA 242015Z AUTO 10010G14KT 3SM BR SCT015 SCT028 OVC037 M01/M03 A2981 RMK AO2 T10101034
KFKA 241955Z AUTO 11010G14KT 4SM -SN BKN015 BKN020 OVC034 M01/M04 A2982 RMK AO2 T10091038
KFKA 241935Z AUTO 11010KT 7SM BKN017 BKN043 OVC049 M01/M04 A2984 RMK AO2 T10101041
KFKA 241915Z AUTO 11013G18KT 7SM BKN017 OVC048 M01/M04 A2986 RMK AO2 T10111043
KFKA 241855Z AUTO 11010KT 7SM BKN015 BKN050 OVC070 M01/M04 A2989 RMK AO2 T10151045
KFKA 241835Z AUTO 11010KT 7SM SCT015 OVC070 M01/M04 A2992 RMK AO2 T10151044
KFKA 241815Z AUTO 12011KT 7SM SCT013 BKN070 OVC100 M02/M05 A2992 RMK AO2 T10161046
KFKA 241755Z AUTO 11010KT 7SM SCT013 BKN080 OVC100 M02/M04 A2992 RMK AO2 T10201045 11020 21116
KFKA 241735Z AUTO 11011G16KT 7SM SCT080 OVC100 M02/M05 A2994 RMK AO2 T10221047
KFKA 241715Z AUTO 14010G15KT 7SM SCT012 BKN100 OVC110 M02/M05 A2997 RMK AO2 T10251050
KFKA 241655Z AUTO 13013G19KT 7SM SCT010 BKN110 M02/M05 A2998 RMK AO2 T10241049
KFKA 241635Z AUTO 12014G17KT 7SM SCT010 OVC110 M03/M05 A2999 RMK AO2 T10301050
KFKA 241615Z AUTO 13012G19KT 7SM SCT010 OVC110 M03/M05 A3001 RMK AO2 T10351048
KFKA 241555Z AUTO 12012G15KT 5SM BR SCT010 BKN120 M04/M05 A3004 RMK AO2 T10401049
KFKA 241535Z AUTO 11011G14KT 4SM BR SCT008 M05/M06 A3006 RMK AO2 T10491056
KFKA 241515Z AUTO 11006KT 3SM BR CLR M06/M07 A3007 RMK AO2 T10601069
KFKA 241455Z AUTO 10005KT 2 1/2SM BR CLR M07/M08 A3009 RMK AO2 T10701078
KFKA 241435Z AUTO 07004KT 2SM BR CLR M08/M09 A3010 RMK AO2 T10761086
KFKA 241415Z AUTO 06003KT 2 1/2SM BR CLR M08/M09 A3010 RMK AO2 T10821093
KFKA 241355Z AUTO 09004KT 2 1/2SM BR CLR M09/M10 A3011 RMK AO2 T10901100
KFKA 241335Z AUTO 08004KT 2SM BR CLR M09/M10 A3011 RMK AO2 T10941105
KFKA 241315Z AUTO 07004KT 2SM BR CLR M10/M11 A3011 RMK AO2 T10981110
KFKA 241255Z AUTO 06003KT 2SM BR CLR M10/M11 A3011 RMK AO2 T11011114
KFKA 241235Z AUTO 05004KT 3SM BR CLR M11/M13 A3011 RMK AO2 T11151128
KFKA 241215Z AUTO 00000KT 3SM BR CLR M11/M13 A3013 RMK AO2 T11151129
KFKA 241155Z AUTO 00000KT 3SM BR CLR M11/M12 A3014 RMK AO2 T11091122 11088 21121
KFKA 241135Z AUTO 05003KT 2 1/2SM BR CLR M10/M12 A3015 RMK AO2 T11031116
KFKA 241115Z AUTO 00000KT 2 1/2SM BR CLR M10/M11 A3015 RMK AO2 T11011113
KFKA 241055Z AUTO 00000KT 2 1/2SM BR CLR M11/M12 A3015 RMK AO2 T11101123
KFKA 241035Z AUTO 00000KT 3SM BR CLR M12/M13 A3016 RMK AO2 T11171129
KFKA 241015Z AUTO 00000KT 3SM BR CLR M11/M13 A3016 RMK AO2 T11151129
KFKA 240955Z AUTO 00000KT 3SM BR SCT002 M10/M11 A3019 RMK AO2 T11011112
KFKA 240935Z AUTO 00000KT 2 1/2SM BR SCT002 M10/M11 A3020 RMK AO2 T11001111
KFKA 240915Z AUTO 00000KT 3SM BR CLR M10/M11 A3021 RMK AO2 T10971109
KFKA 240855Z AUTO 00000KT 4SM BR CLR M10/M11 A3023 RMK AO2 T11011113
KFKA 240835Z AUTO 00000KT 2 1/2SM BR SCT120 M09/M10 A3023 RMK AO2 T10941104
KFKA 240815Z AUTO 00000KT 3SM BR CLR M09/M10 A3024 RMK AO2 T10891100
KFKA 240755Z AUTO 00000KT 3SM BR CLR M09/M10 A3026 RMK AO2 T10941104
KFKA 240735Z AUTO 00000KT 3SM BR CLR M09/M10 A3026 RMK AO2 T10951105
KFKA 240715Z AUTO 00000KT 3SM BR CLR M10/M11 A3026 RMK AO2 T11011112
KFKA 240655Z AUTO 00000KT 4SM BR CLR M10/M11 A3026 RMK AO2 T10991111
KFKA 240635Z AUTO 00000KT 4SM BR CLR M10/M11 A3027 RMK AO2 T11031114
KFKA 240615Z AUTO 32003KT 4SM BR CLR M09/M11 A3027 RMK AO2 T10941106
KFKA 240555Z AUTO 00000KT 4SM BR CLR M09/M10 A3027 RMK AO2 T10881100 11060 21091 410021091
KFKA 240535Z AUTO 00000KT 4SM BR CLR M09/M10 A3028 RMK AO2 T10901101
KFKA 240515Z AUTO 00000KT 4SM BR CLR M09/M10 A3027 RMK AO2 T10871099
KFKA 240455Z AUTO 35008KT 4SM BR CLR M09/M10 A3024 RMK AO2 T10871100
KFKA 240435Z AUTO 35008KT 4SM BR CLR M09/M10 A3025 RMK AO2 T10861098
KFKA 240415Z AUTO 35006KT 4SM BR CLR M09/M10 A3025 RMK AO2 T10881100
KFKA 240355Z AUTO 35004KT 5SM BR CLR M09/M10 A3027 RMK AO2 T10861100
KFKA 240335Z AUTO 00000KT 5SM BR CLR M08/M09 A3028 RMK AO2 T10801095
KFKA 240315Z AUTO 34006KT 7SM CLR M08/M09 A3027 RMK AO2 T10801095
KFKA 240255Z AUTO 34007KT 5SM BR CLR M08/M09 A3027 RMK AO2 T10781093
KFKA 240235Z AUTO 33007KT 7SM CLR M08/M09 A3027 RMK AO2 T10771091
KFKA 240215Z AUTO 32006KT 7SM CLR M07/M09 A3027 RMK AO2 T10751091
KFKA 240155Z AUTO 32006KT 7SM CLR M07/M09 A3027 RMK AO2 T10751090
KFKA 240135Z AUTO 30006KT 7SM CLR M07/M09 A3027 RMK AO2 T10751090
KFKA 240115Z AUTO 30005KT 7SM CLR M08/M09 A3028 RMK AO2 T10761091
KFKA 240055Z AUTO 29005KT 7SM CLR M07/M09 A3027 RMK AO2 T10711087
KFKA 240035Z AUTO 28006KT 7SM CLR M07/M08 A3027 RMK AO2 T10701085
KFKA 240015Z AUTO 27005KT 7SM CLR M06/M08 A3027 RMK AO2 T10651082
KFKA 232355Z AUTO 27005KT 10SM CLR M06/M08 A3026 RMK AO2 T10601078 11034 21060
KFKA 232335Z AUTO 29006KT 7SM CLR M05/M07 A3026 RMK AO2 T10551073
KFKA 232315Z AUTO 29006KT 7SM CLR M05/M07 A3025 RMK AO2 T10501070
KFKA 232255Z AUTO 29007KT 7SM CLR M05/M07 A3024 RMK AO2 T10461066
KFKA 232235Z AUTO 29007KT 10SM CLR M04/M06 A3024 RMK AO2 T10451065
KFKA 232215Z AUTO 30009KT 7SM CLR M04/M06 A3022 RMK AO2 T10451065
KFKA 232155Z AUTO 29010KT 7SM CLR M04/M06 A3023 RMK AO2 T10441064
KFKA 232135Z AUTO 27011KT 7SM SCT007 M04/M06 A3023 RMK AO2 T10421063
KFKA 232115Z AUTO 28008KT 7SM BKN007 M05/M06 A3021 RMK AO2 T10471065
KFKA 232055Z AUTO 27010KT 7SM BKN007 M04/M06 A3021 RMK AO2 T10451064
KFKA 232035Z AUTO 27010KT 7SM BKN007 M04/M06 A3021 RMK AO2 T10401059
KFKA 232015Z AUTO 28008KT 7SM SCT007 M04/M06 A3021 RMK AO2 T10421060
KFKA 231955Z AUTO 27011KT 7SM BKN007 M04/M06 A3021 RMK AO2 T10361057
KFKA 231935Z AUTO 29009KT 7SM SCT007 M04/M06 A3021 RMK AO2 T10421060
KFKA 231915Z AUTO 28010KT 7SM SCT007 M04/M06 A3020 RMK AO2 T10371058
KFKA 231855Z AUTO 29010KT 7SM SCT007 M04/M06 A3018 RMK AO2 T10371057
KFKA 231835Z AUTO 28011KT 7SM SCT007 M03/M05 A3019 RMK AO2 T10351054
KFKA 231815Z AUTO 29010KT 7SM BKN009 M04/M06 A3018 RMK AO2 T10381056
KFKA 231755Z AUTO 27010KT 10SM BKN009 M03/M05 A3018 RMK AO2 T10341053 11005 21036
KFKA 231735Z AUTO 28010KT 10SM OVC009 M03/M05 A3018 RMK AO2 T10351053
KFKA 231715Z AUTO 27010KT 10SM BKN011 M03/M05 A3018 RMK AO2 T10351055
KFKA 231655Z AUTO 27011KT 10SM BKN011 M03/M05 A3017 RMK AO2 T10351055
KFKA 231635Z AUTO 27011KT 10SM OVC009 M03/M05 A3017 RMK AO2 T10331051
KFKA 231615Z AUTO 29013KT 10SM OVC011 M03/M05 A3015 RMK AO2 T10341054
KFKA 231555Z AUTO 27009KT 10SM OVC011 M03/M05 A3015 RMK AO2 T10301049
KFKA 231535Z AUTO 27013G17KT 10SM OVC011 M03/M05 A3014 RMK AO2 T10301049
KFKA 231515Z AUTO 29011G16KT 10SM SCT011 BKN025 M02/M04 A3012 RMK AO2 T10251045
KFKA 231455Z AUTO 28008KT 10SM SCT012 BKN025 M03/M04 A3012 RMK AO2 T10271045
KFKA 231435Z AUTO 28011KT 7SM SCT012 OVC027 M03/M04 A3011 RMK AO2 T10261043
KFKA 231415Z AUTO 28012KT 10SM OVC031 M03/M05 A3010 RMK AO2 T10271046
KFKA 231355Z AUTO 27009KT 7SM OVC033 M02/M04 A3009 RMK AO2 T10251042
KFKA 231335Z AUTO 27010KT 7SM SCT010 OVC035 M02/M04 A3009 RMK AO2 T10221039
KFKA 231315Z AUTO 28010KT 10SM OVC008 M02/M04 A3007 RMK AO2 T10211036
KFKA 231255Z AUTO 28013G17KT 10SM BKN010 OVC016 M01/M03 A3007 RMK AO2 T10151029
KFKA 231235Z AUTO 28013G17KT 10SM OVC010 M01/M02 A3007 RMK AO2 T10111024
KFKA 231215Z AUTO 26012KT 10SM BKN010 OVC014 M01/M02 A3005 RMK AO2 T10081020
KFKA 231155Z AUTO 26010G17KT 10SM OVC010 00/M02 A3005 RMK AO2 T10051016 11002 21012
KFKA 231135Z AUTO 26011G16KT 7SM OVC008 00/M01 A3004 RMK AO2 T10051011
KFKA 231115Z AUTO 26009KT 5SM BR BKN005 OVC010 00/M01 A3004 RMK AO2 T10021009
KFKA 231055Z AUTO 24006KT 2SM BR OVC005 00/M01 A3004 RMK AO2 T10021007
KFKA 231035Z AUTO 23006KT 3SM BR OVC005 00/M01 A3004 RMK AO2 T10021007
KFKA 231015Z AUTO 21005KT 3SM BR OVC005 00/M01 A3003 RMK AO2 T10021007